Time;durP1;ratioP1;P1;durP2;ratioP2;P2;SDS_P1;SDS_P2;PMS_P1;PMS_P2;Temp;Humidity;BMP_temperature;BMP_pressure;BME280_temperature;BME280_humidity;BME280_pressure;Samples;Min_cycle;Max_cycle;Signal;HPM_P1;HPM_P2
2023/09/04 00:02:34;;;;;;;;;;;;;;;22.73;61.81;102162.31;2151376;82;51557;-75
2023/09/04 00:05:35;;;;;;;;;;;;;;;22.74;62.11;102165.87;2132582;82;51217;-74
2023/09/04 00:08:37;;;;;;;;;;;;;;;22.76;61.84;102161.98;2151561;82;50459;-74
2023/09/04 00:11:38;;;;;;;;;;;;;;;22.77;61.51;102159.61;2152066;81;50638;-75
2023/09/04 00:14:40;;;;;;;;;;;;;;;22.76;62.12;102160.64;2153355;82;50643;-74
2023/09/04 00:17:42;;;;;;;;;;;;;;;22.73;62.50;102165.52;2112822;82;52479;-75
2023/09/04 00:20:43;;;;;;;;;;;;;;;22.74;62.25;102162.66;2153654;82;51440;-75
2023/09/04 00:23:45;;;;;;;;;;;;;;;22.73;62.19;102159.61;2133379;82;51492;-75
2023/09/04 00:26:46;;;;;;;;;;;;;;;22.74;62.17;102160.47;2153700;82;49949;-75
2023/09/04 00:29:48;;;;;;;;;;;;;;;22.74;62.32;102161.31;2134545;82;52363;-74
2023/09/04 00:32:50;;;;;;;;;;;;;;;22.74;62.44;102165.87;2153206;82;51478;-75
2023/09/04 00:35:51;;;;;;;;;;;;;;;22.73;62.24;102170.41;2153616;82;51601;-74
2023/09/04 00:38:53;;;;;;;;;;;;;;;22.74;62.16;102166.70;2153407;82;51416;-74
2023/09/04 00:41:54;;;;;;;;;;;;;;;22.73;62.67;102177.66;2130131;82;51422;-74
2023/09/04 00:44:56;;;;;;;;;;;;;;;22.70;62.57;102182.90;2144798;82;50364;-75
2023/09/04 00:47:57;;;;;;;;;;;;;;;22.72;62.41;102172.78;2151732;82;50273;-75
2023/09/04 00:50:59;;;;;;;;;;;;;;;22.70;62.53;102167.22;2151695;82;50754;-75
2023/09/04 00:54:00;;;;;;;;;;;;;;;22.66;62.54;102172.14;2154978;82;52483;-74
2023/09/04 00:57:03;;;;;;;;;;;;;;;22.66;62.61;102167.22;2151680;81;50756;-74
2023/09/04 01:00:10;;;;;;;;;;;;;;;22.66;62.63;102168.09;2151667;82;51594;-75
2023/09/04 01:03:09;;;;;;;;;;;;;;;22.67;62.48;102171.11;2151824;82;22333;-74
2023/09/04 01:06:11;;;;;;;;;;;;;;;22.66;62.64;102161.34;2151692;82;50366;-73
2023/09/04 01:09:12;;;;;;;;;;;;;;;22.66;62.58;102153.73;2151760;82;50262;-74
2023/09/04 01:12:21;;;;;;;;;;;;;;;22.66;62.66;102155.95;2155308;82;50733;-74
2023/09/04 01:15:24;;;;;;;;;;;;;;;22.63;62.87;102165.71;2153582;82;50227;-75
2023/09/04 01:18:26;;;;;;;;;;;;;;;22.63;62.81;102171.63;2157093;82;52716;-73
2023/09/04 01:21:27;;;;;;;;;;;;;;;22.62;62.86;102169.44;2153579;82;51536;-74
2023/09/04 01:24:29;;;;;;;;;;;;;;;22.63;62.75;102171.11;2176137;81;51460;-74
2023/09/04 01:27:31;;;;;;;;;;;;;;;22.62;62.74;102170.78;2157028;82;51021;-74
2023/09/04 01:30:38;;;;;;;;;;;;;;;22.62;62.72;102173.48;2157158;81;51209;-75
2023/09/04 01:33:40;;;;;;;;;;;;;;;22.61;62.82;102169.95;2153684;81;22349;-75
2023/09/04 01:36:41;;;;;;;;;;;;;;;22.64;62.57;102166.58;2153826;81;50423;-74
2023/09/04 01:39:43;;;;;;;;;;;;;;;22.66;62.40;102168.09;2153630;82;50655;-75
2023/09/04 01:42:45;;;;;;;;;;;;;;;22.68;62.19;102171.95;2152181;82;51417;-75
2023/09/04 01:45:46;;;;;;;;;;;;;;;22.65;62.53;102176.34;2154625;82;50291;-74
2023/09/04 01:48:49;;;;;;;;;;;;;;;22.65;62.29;102169.09;2151651;82;50644;-75
2023/09/04 01:51:51;;;;;;;;;;;;;;;22.69;62.14;102162.34;2155206;82;51529;-75
2023/09/04 01:54:53;;;;;;;;;;;;;;;22.71;61.74;102163.50;2132582;82;51201;-74
2023/09/04 01:57:55;;;;;;;;;;;;;;;22.73;61.55;102172.27;2151500;82;50760;-75
2023/09/04 02:00:56;;;;;;;;;;;;;;;22.72;61.54;102170.08;2151569;82;51441;-74
2023/09/04 02:03:58;;;;;;;;;;;;;;;22.72;61.52;102176.83;2151518;82;51703;-76
2023/09/04 02:06:59;;;;;;;;;;;;;;;22.73;61.41;102169.05;2154911;82;51078;-74
2023/09/04 02:10:01;;;;;;;;;;;;;;;22.74;61.46;102166.70;2155286;82;51473;-76
2023/09/04 02:13:03;;;;;;;;;;;;;;;22.73;61.39;102160.13;2155488;82;50700;-75
2023/09/04 02:16:04;;;;;;;;;;;;;;;22.73;61.46;102160.95;2176324;81;50249;-75
2023/09/04 02:19:06;;;;;;;;;;;;;;;22.73;61.47;102165.00;2153144;82;51225;-75
2023/09/04 02:22:08;;;;;;;;;;;;;;;22.73;61.39;102169.56;2153537;82;50622;-74
2023/09/04 02:25:09;;;;;;;;;;;;;;;22.72;61.49;102172.78;2153338;81;51300;-75
2023/09/04 02:28:11;;;;;;;;;;;;;;;22.72;61.45;102175.48;2157098;82;51108;-74
2023/09/04 02:31:12;;;;;;;;;;;;;;;22.72;61.48;102166.55;2153129;82;52418;-74
2023/09/04 02:34:14;;;;;;;;;;;;;;;22.73;61.46;102175.80;2176065;81;51620;-74
2023/09/04 02:37:16;;;;;;;;;;;;;;;22.73;61.47;102165.52;2153581;82;50698;-75
2023/09/04 02:40:18;;;;;;;;;;;;;;;22.73;61.42;102173.10;2153540;82;50434;-75
2023/09/04 02:43:19;;;;;;;;;;;;;;;22.72;61.40;102169.25;2147232;82;52346;-74
2023/09/04 02:46:21;;;;;;;;;;;;;;;22.71;61.29;102159.45;2155289;82;50302;-74
2023/09/04 02:49:22;;;;;;;;;;;;;;;22.70;61.24;102168.06;2155235;82;50177;-75
2023/09/04 02:52:24;;;;;;;;;;;;;;;22.70;61.32;102161.83;2155061;82;49657;-74
2023/09/04 02:55:26;;;;;;;;;;;;;;;22.69;61.21;102159.64;2132575;82;53709;-74
2023/09/04 02:58:27;;;;;;;;;;;;;;;22.67;61.43;102160.83;2155043;82;50649;-74
2023/09/04 03:01:29;;;;;;;;;;;;;;;22.68;61.43;102166.03;2151559;82;50101;-74
2023/09/04 03:04:31;;;;;;;;;;;;;;;22.67;61.45;102169.76;2155045;82;51553;-75
2023/09/04 03:07:32;;;;;;;;;;;;;;;22.68;61.44;102164.69;2132879;82;51055;-75
2023/09/04 03:10:34;;;;;;;;;;;;;;;22.68;61.34;102171.95;2151616;82;51495;-74
2023/09/04 03:13:36;;;;;;;;;;;;;;;22.68;61.28;102171.95;2161744;81;51462;-74
2023/09/04 03:16:38;;;;;;;;;;;;;;;22.69;61.22;102167.73;2151705;82;51480;-74
2023/09/04 03:19:39;;;;;;;;;;;;;;;22.67;61.18;102177.86;2155339;82;51783;-74
2023/09/04 03:22:41;;;;;;;;;;;;;;;22.68;61.17;102180.04;2155108;82;52211;-74
2023/09/04 03:25:42;;;;;;;;;;;;;;;22.68;61.21;102185.44;2155161;82;50728;-75
2023/09/04 03:28:44;;;;;;;;;;;;;;;22.68;61.30;102186.78;2155240;82;51488;-73
2023/09/04 03:31:46;;;;;;;;;;;;;;;22.68;61.29;102186.78;2154932;81;49548;-74
2023/09/04 03:34:48;;;;;;;;;;;;;;;22.67;61.34;102183.25;2154970;82;50470;-75
2023/09/04 03:37:49;;;;;;;;;;;;;;;22.69;61.21;102189.84;2155120;82;50277;-74
2023/09/04 03:40:51;;;;;;;;;;;;;;;22.68;61.04;102188.97;2151695;82;50277;-74
2023/09/04 03:43:53;;;;;;;;;;;;;;;22.67;61.03;102195.91;2114337;82;51581;-74
2023/09/04 03:46:54;;;;;;;;;;;;;;;22.68;61.01;102204.33;2153614;82;51396;-74
2023/09/04 03:49:56;;;;;;;;;;;;;;;22.67;61.23;102207.53;2153628;82;51588;-74
2023/09/04 03:52:57;;;;;;;;;;;;;;;22.68;61.08;102207.02;2153360;82;51578;-74
2023/09/04 03:56:03;;;;;;;;;;;;;;;22.67;61.16;102207.53;2153602;82;51474;-74
2023/09/04 03:59:05;;;;;;;;;;;;;;;22.67;61.05;102208.05;2153106;81;50701;-74
2023/09/04 04:02:06;;;;;;;;;;;;;;;22.67;61.09;102202.66;2153608;82;51447;-74
2023/09/04 04:05:09;;;;;;;;;;;;;;;22.66;61.13;102211.26;2153362;82;50783;-74
2023/09/04 04:08:11;;;;;;;;;;;;;;;22.66;61.12;102208.56;2153198;81;51527;-76
2023/09/04 04:11:12;;;;;;;;;;;;;;;22.66;61.19;102212.61;2176322;81;50234;-76
2023/09/04 04:14:14;;;;;;;;;;;;;;;22.67;61.18;102217.49;2153559;82;51354;-75
2023/09/04 04:17:16;;;;;;;;;;;;;;;22.66;61.15;102215.30;2153570;82;50413;-75
2023/09/04 04:20:17;;;;;;;;;;;;;;;22.66;60.91;102223.88;2157114;82;51118;-76
2023/09/04 04:23:19;;;;;;;;;;;;;;;22.66;60.91;102220.70;2176270;81;50322;-75
2023/09/04 04:26:20;;;;;;;;;;;;;;;22.66;60.91;102230.63;2176284;81;50653;-76
2023/09/04 04:29:22;;;;;;;;;;;;;;;22.65;60.84;102235.19;2153597;82;51551;-76
2023/09/04 04:32:23;;;;;;;;;;;;;;;22.65;60.85;102237.05;2153102;82;51653;-75
2023/09/04 04:35:25;;;;;;;;;;;;;;;22.61;61.03;102237.40;2176455;81;51502;-75
2023/09/04 04:38:27;;;;;;;;;;;;;;;22.59;61.27;102235.38;2153551;82;51483;-74
2023/09/04 04:41:28;;;;;;;;;;;;;;;22.61;61.29;102239.27;2153213;82;50387;-75
2023/09/04 04:44:30;;;;;;;;;;;;;;;22.60;61.17;102237.56;2161718;81;50264;-76
2023/09/04 04:47:31;;;;;;;;;;;;;;;22.59;61.01;102235.38;2176406;81;50640;-75
2023/09/04 04:50:33;;;;;;;;;;;;;;;22.59;60.90;102233.19;2153562;82;50294;-75
2023/09/04 04:53:35;;;;;;;;;;;;;;;22.60;60.80;102238.39;2176054;81;50190;-76
2023/09/04 04:56:39;;;;;;;;;;;;;;;22.62;60.70;102239.58;2157333;82;52359;-76
2023/09/04 04:59:56;;;;;;;;;;;;;;;22.63;60.56;102242.61;2148762;82;22335;-76
2023/09/04 05:03:03;;;;;;;;;;;;;;;22.63;60.51;102245.30;2089750;83;22236;-77
2023/09/04 05:06:11;;;;;;;;;;;;;;;22.62;60.45;102250.37;2093373;84;21755;-76
2023/09/04 05:09:26;;;;;;;;;;;;;;;22.64;60.27;102255.10;2091443;85;21720;-76
2023/09/04 05:12:29;;;;;;;;;;;;;;;22.58;57.76;102254.41;2101151;83;22245;-76
2023/09/04 05:15:33;;;;;;;;;;;;;;;22.49;55.79;102258.16;2098386;83;50723;-77
2023/09/04 05:18:37;;;;;;;;;;;;;;;22.48;57.14;102259.15;2076156;84;22263;-76
2023/09/04 05:21:39;;;;;;;256.77;31.37;;;;;;;22.46;57.21;102250.41;2035782;86;52193;-76
2023/09/04 05:24:41;;;;;;;12.68;4.10;;;;;;;22.68;56.71;102245.62;2007597;86;50227;-75
2023/09/04 05:27:45;;;;;;;14.00;4.42;;;;;;;22.55;56.93;102261.00;2008995;87;50411;-75
2023/09/04 05:30:47;;;;;;;16.37;4.47;;;;;;;22.49;57.05;102256.80;2031068;86;51589;-74
2023/09/04 05:33:49;;;;;;;19.23;4.40;;;;;;;22.45;57.18;102256.80;2009434;86;52506;-75
2023/09/04 05:36:53;;;;;;;14.58;4.20;;;;;;;22.43;57.26;102257.47;2028944;87;50301;-76
2023/09/04 05:39:55;;;;;;;14.63;4.20;;;;;;;22.49;57.97;102256.80;2062969;85;52341;-75
2023/09/04 05:42:57;;;;;;;17.65;4.15;;;;;;;22.58;58.14;102256.63;2072378;83;50390;-74
2023/09/04 05:46:00;;;;;;;13.08;4.97;;;;;;;22.66;58.21;102250.86;2094168;84;51220;-75
2023/09/04 05:49:02;;;;;;;22.40;5.15;;;;;;;22.65;58.33;102262.17;2095321;84;50614;-75
2023/09/04 05:52:05;;;;;;;11.20;3.50;;;;;;;22.67;58.31;102258.80;2074267;84;51731;-75
2023/09/04 05:55:07;;;;;;;13.88;4.35;;;;;;;22.72;58.39;102261.83;2050594;83;49555;-75
2023/09/04 05:58:11;;;;;;;12.58;3.85;;;;;;;22.76;58.28;102264.53;2122446;83;50431;-75
2023/09/04 06:01:14;;;;;;;11.68;3.90;;;;;;;22.79;58.36;102258.78;2095328;83;50050;-73
2023/09/04 06:04:16;;;;;;;14.55;4.20;;;;;;;22.89;58.26;102264.48;2082086;83;51545;-74
2023/09/04 06:07:18;;;;;;;18.57;4.58;;;;;;;23.00;58.00;102256.06;2123051;82;51501;-74
2023/09/04 06:10:20;;;;;;;13.70;3.87;;;;;;;23.04;57.95;102252.85;2126748;82;52376;-74
2023/09/04 06:13:22;;;;;;;22.93;4.47;;;;;;;23.09;57.79;102256.36;2067484;83;51066;-74
2023/09/04 06:16:25;;;;;;;20.77;4.65;;;;;;;23.13;57.83;102252.30;2096345;83;50122;-74
2023/09/04 06:19:27;;;;;;;15.63;4.60;;;;;;;23.18;57.69;102252.62;2104039;83;50634;-74
2023/09/04 06:22:30;;;;;;;22.42;4.25;;;;;;;23.23;57.54;102252.94;2121307;83;51596;-74
2023/09/04 06:25:32;;;;;;;20.50;4.85;;;;;;;23.27;57.37;102257.47;2121028;83;51591;-75
2023/09/04 06:28:35;;;;;;;24.80;4.30;;;;;;;23.30;57.22;102257.63;2092981;83;50608;-75
2023/09/04 06:31:37;;;;;;;24.18;4.65;;;;;;;23.34;57.03;102254.92;2094546;83;51367;-74
2023/09/04 06:34:39;;;;;;;17.95;3.92;;;;;;;23.36;56.89;102250.19;2095009;83;50617;-74
2023/09/04 06:37:43;;;;;;;21.55;4.80;;;;;;;23.39;56.75;102255.23;2103636;82;52327;-74
2023/09/04 06:40:45;;;;;;;17.07;4.25;;;;;;;23.39;56.65;102252.02;2093021;83;22740;-74
2023/09/04 06:43:47;;;;;;;18.12;4.62;;;;;;;23.42;56.54;102254.36;2122867;83;49929;-74
2023/09/04 06:46:50;;;;;;;25.32;4.65;;;;;;;23.44;56.43;102248.28;2082600;83;51446;-74
2023/09/04 06:49:52;;;;;;;19.17;4.78;;;;;;;23.47;56.37;102251.14;2104884;83;50657;-75
2023/09/04 06:52:54;;;;;;;21.37;3.87;;;;;;;23.50;56.26;102258.88;2126696;82;51169;-75
2023/09/04 06:55:56;;;;;;;13.13;3.80;;;;;;;23.51;56.21;102261.94;2123506;83;51463;-74
2023/09/04 06:58:58;;;;;;;12.80;4.20;;;;;;;23.53;56.11;102251.80;2104883;82;50643;-74
2023/09/04 07:02:01;;;;;;;15.78;4.17;;;;;;;23.55;56.08;102251.09;2104666;83;51683;-75
2023/09/04 07:05:04;;;;;;;13.35;3.70;;;;;;;23.55;56.00;102252.44;2104208;82;50258;-75
2023/09/04 07:08:06;;;;;;;12.55;4.17;;;;;;;23.57;55.95;102253.63;2103742;84;50500;-74
2023/09/04 07:11:08;;;;;;;10.60;3.83;;;;;;;23.58;55.87;102250.76;2103003;83;51418;-74
2023/09/04 07:14:11;;;;;;;13.08;3.85;;;;;;;23.58;55.80;102245.35;2121111;84;50484;-74
2023/09/04 07:17:13;;;;;;;11.40;3.90;;;;;;;23.59;55.80;102249.73;2101856;83;51176;-73
2023/09/04 07:20:15;;;;;;;13.88;3.98;;;;;;;23.59;55.75;102248.38;2103530;84;50750;-74
2023/09/04 07:23:18;;;;;;;9.93;3.02;;;;;;;23.61;55.66;102250.87;2120897;82;50247;-73
2023/09/04 07:26:20;;;;;;;13.83;3.65;;;;;;;23.61;55.59;102250.87;2080847;84;52039;-74
2023/09/04 07:29:22;;;;;;;10.05;3.70;;;;;;;23.60;55.55;102243.29;2103396;83;50392;-74
2023/09/04 07:32:25;;;;;;;13.00;3.37;;;;;;;23.62;55.51;102240.42;2102879;83;50380;-74
2023/09/04 07:35:28;;;;;;;12.03;3.60;;;;;;;23.61;55.47;102237.37;2102899;83;50301;-74
2023/09/04 07:38:31;;;;;;;16.52;3.70;;;;;;;23.62;55.43;102249.36;2103883;83;51647;-74
2023/09/04 07:41:33;;;;;;;12.65;3.35;;;;;;;23.60;55.41;102241.94;2080350;84;51487;-74
2023/09/04 07:44:35;;;;;;;9.25;3.17;;;;;;;23.61;55.35;102242.29;2102842;83;51641;-75
2023/09/04 07:47:37;;;;;;;13.58;3.83;;;;;;;23.60;55.33;102241.94;2121511;83;51423;-74
2023/09/04 07:50:40;;;;;;;9.98;3.40;;;;;;;23.62;55.33;102249.88;2081580;84;51415;-74
2023/09/04 07:53:42;;;;;;;10.68;3.47;;;;;;;23.61;55.29;102246.34;2102607;84;50119;-75
2023/09/04 07:56:44;;;;;;;10.38;2.92;;;;;;;23.60;55.25;102251.39;2102542;84;50593;-74
2023/09/04 07:59:46;;;;;;;10.38;3.40;;;;;;;23.60;55.23;102247.34;2102647;84;51445;-75
2023/09/04 08:02:49;;;;;;;11.93;3.02;;;;;;;23.61;55.20;102249.05;2102751;83;50627;-75
2023/09/04 08:05:52;;;;;;;9.70;3.47;;;;;;;23.59;55.21;102251.08;2081493;84;52458;-76
2023/09/04 08:08:54;;;;;;;12.13;3.55;;;;;;;23.58;55.22;102248.06;2103627;83;51613;-75
2023/09/04 08:11:56;;;;;;;8.80;3.40;;;;;;;23.60;55.21;102246.51;2102646;84;50198;-73
2023/09/04 08:14:58;;;;;;;7.72;3.00;;;;;;;23.58;55.17;102249.41;2101793;84;50727;-75
2023/09/04 08:18:00;;;;;;;8.50;3.40;;;;;;;23.57;55.21;102249.06;2102924;83;50369;-74
2023/09/04 08:21:03;;;;;;;7.15;2.80;;;;;;;23.56;55.20;102252.79;2120991;82;50130;-74
2023/09/04 08:24:05;;;;;;;8.75;3.02;;;;;;;23.55;55.19;102253.79;2102963;83;51464;-74
2023/09/04 08:27:08;;;;;;;8.90;2.80;;;;;;;23.55;55.17;102249.73;2102951;84;50184;-74
2023/09/04 08:30:10;;;;;;;7.97;2.60;;;;;;;23.56;55.09;102247.38;2103271;83;50727;-75
2023/09/04 08:33:13;;;;;;;7.30;3.20;;;;;;;23.56;55.09;102241.98;2102839;84;50705;-75
2023/09/04 08:36:15;;;;;;;8.18;3.40;;;;;;;23.57;55.05;102237.41;2103369;82;50286;-77
2023/09/04 08:39:17;;;;;;;7.28;2.80;;;;;;;23.54;55.08;102230.50;2103764;84;50270;-74
2023/09/04 08:42:19;;;;;;;6.37;3.17;;;;;;;23.54;55.06;102233.20;2102728;83;50552;-74
2023/09/04 08:45:22;;;;;;;10.30;3.27;;;;;;;23.52;55.07;102229.83;2121591;84;50317;-74
2023/09/04 08:48:24;;;;;;;5.45;2.60;;;;;;;23.50;55.09;102225.63;2121554;84;50249;-74
2023/09/04 08:51:26;;;;;;;6.78;3.08;;;;;;;23.47;55.10;102226.82;2121471;83;50256;-75
2023/09/04 08:54:29;;;;;;;9.13;3.10;;;;;;;23.45;55.11;102223.45;2101748;83;51187;-75
2023/09/04 08:57:31;;;;;;;10.65;2.70;;;;;;;23.42;55.15;102227.86;2121535;84;51458;-75
2023/09/04 09:00:33;;;;;;;4.72;2.60;;;;;;;23.39;55.22;102232.27;2121505;82;50265;-75
2023/09/04 09:03:35;;;;;;;5.60;2.70;;;;;;;23.36;55.29;102228.58;2120752;83;51532;-75
2023/09/04 09:06:37;;;;;;;7.72;2.77;;;;;;;23.35;55.30;102233.63;2121853;82;49883;-74
2023/09/04 09:09:43;;;;;;;6.00;2.85;;;;;;;23.32;55.35;102240.23;2121630;83;50335;-75
2023/09/04 09:12:44;;;;;;;;;;;;;;;23.34;55.33;102231.96;2123763;83;50749;-75
2023/09/04 09:15:47;;;;;;;6.22;2.87;;;;;;;23.36;55.22;102240.73;2121805;82;50762;-75
2023/09/04 09:18:49;;;;;;;5.85;2.45;;;;;;;23.33;55.30;102239.75;2103214;83;51579;-74
2023/09/04 09:21:52;;;;;;;7.37;2.67;;;;;;;23.31;55.33;102238.55;2103034;84;50312;-74
2023/09/04 09:25:01;;;;;;;6.12;2.58;;;;;;;23.31;55.35;102241.77;2103405;83;51496;-74
2023/09/04 09:28:05;;;;;;;9.28;3.00;;;;;;;23.29;55.36;102236.53;2101871;84;51241;-75
2023/09/04 09:31:08;;;;;;;5.20;2.60;;;;;;;23.28;55.37;102238.08;2121390;83;50139;-75
2023/09/04 09:34:10;;;;;;;6.20;2.92;;;;;;;23.26;55.35;102233.67;2120981;84;50624;-75
2023/09/04 09:37:13;;;;;;;4.47;2.37;;;;;;;23.27;55.34;102226.41;2103455;83;52551;-74
2023/09/04 09:40:16;;;;;;;9.18;3.02;;;;;;;23.25;55.35;102226.61;2123132;83;51465;-75
2023/09/04 09:43:18;;;;;;;7.85;3.10;;;;;;;23.24;55.38;102230.30;2104650;82;51461;-74
2023/09/04 09:46:21;;;;;;;6.72;3.10;;;;;;;23.24;55.38;102222.20;2094218;83;50000;-74
2023/09/04 09:49:23;;;;;;;5.85;3.10;;;;;;;23.21;55.42;102223.91;2094069;82;51518;-74
2023/09/04 09:52:25;;;;;;;4.65;2.62;;;;;;;23.19;55.44;102225.94;2104386;83;49496;-74
2023/09/04 09:55:29;;;;;;;3.77;2.60;;;;;;;23.21;55.40;102223.91;2094297;82;49969;-74
2023/09/04 09:58:31;;;;;;;6.70;2.65;;;;;;;23.18;55.49;102224.78;2122929;83;50675;-75
2023/09/04 10:01:33;;;;;;;7.67;3.02;;;;;;;23.17;55.46;102225.30;2126559;83;52506;-75
2023/09/04 10:04:36;;;;;;;5.35;2.85;;;;;;;23.16;55.49;102221.41;2122735;83;50733;-75
2023/09/04 10:07:38;;;;;;;6.30;2.35;;;;;;;23.16;55.49;102219.55;2121388;82;51458;-75
2023/09/04 10:10:41;;;;;;;8.90;2.60;;;;;;;23.15;55.49;102220.58;2123165;82;51558;-75
2023/09/04 10:14:06;;;;;;;4.03;2.10;;;;;;;23.15;55.46;102219.22;2125134;82;50717;-75
2023/09/04 10:17:21;;;;;;;4.08;2.50;;;;;;;23.13;55.50;102217.20;2104026;83;51775;-75
2023/09/04 10:20:20;;;;;;;5.58;2.60;;;;;;;23.11;55.52;102227.33;2121712;82;22815;-75
2023/09/04 10:23:24;;;;;;;5.72;2.40;;;;;;;23.10;55.54;102225.66;2123443;83;50658;-75
2023/09/04 10:26:39;;;;;;;5.65;2.45;;;;;;;23.08;55.55;102220.09;2104674;83;52412;-75
2023/09/04 10:29:45;;;;;;;5.08;2.30;;;;;;;23.08;55.54;102213.34;2123178;82;50686;-75
2023/09/04 10:32:48;;;;;;;6.95;2.80;;;;;;;23.06;55.57;102229.71;2122400;83;51394;-74
2023/09/04 10:35:50;;;;;;;5.85;2.42;;;;;;;23.07;55.54;102226.02;2122611;83;51575;-75
2023/09/04 10:38:52;;;;;;;3.92;2.12;;;;;;;23.07;55.50;102219.27;2103564;84;51442;-75
2023/09/04 10:41:54;;;;;;;5.62;2.40;;;;;;;23.06;55.57;102212.67;2101912;84;51687;-74
2023/09/04 10:44:58;;;;;;;7.05;2.47;;;;;;;23.05;55.57;102209.14;2121251;83;51572;-74
2023/09/04 10:48:01;;;;;;;5.78;2.40;;;;;;;23.03;55.57;102198.50;2103614;84;50706;-74
2023/09/04 10:51:06;;;;;;;3.52;2.17;;;;;;;23.05;55.55;102201.04;2122371;82;50460;-74
2023/09/04 10:54:15;;;;;;;4.58;2.45;;;;;;;23.03;55.56;102195.80;2103564;83;50802;-74
2023/09/04 10:57:17;;;;;;;5.72;2.65;;;;;;;23.04;55.53;102193.94;2121791;83;50796;-75
2023/09/04 11:00:28;;;;;;;6.03;2.67;;;;;;;23.02;55.57;102196.00;2103312;84;50037;-74
2023/09/04 11:03:30;;;;;;;7.53;2.50;;;;;;;23.03;55.53;102200.37;2121474;84;50453;-75
2023/09/04 11:06:39;;;;;;;3.83;2.10;;;;;;;23.02;55.54;102191.95;2080378;84;51196;-75
2023/09/04 11:09:42;;;;;;;5.42;2.80;;;;;;;23.02;55.49;102187.38;2121496;83;49986;-74
2023/09/04 11:12:45;;;;;;;3.60;2.60;;;;;;;23.00;55.49;102188.06;2102385;84;50504;-74
2023/09/04 11:15:47;;;;;;;5.58;2.30;;;;;;;23.01;55.47;102182.98;2124881;83;52324;-74
2023/09/04 11:19:01;;;;;;;3.22;2.15;;;;;;;23.00;55.48;102182.66;2120578;83;51583;-75
2023/09/04 11:22:03;;;;;;;5.35;2.27;;;;;;;23.02;55.49;102183.33;2121365;83;50442;-75
2023/09/04 11:25:06;;;;;;;3.65;2.15;;;;;;;23.01;55.48;102175.40;2121839;83;51443;-74
2023/09/04 11:28:08;;;;;;;4.62;2.30;;;;;;;23.01;55.50;102179.45;2103088;83;50270;-74
2023/09/04 11:31:10;;;;;;;3.87;2.10;;;;;;;23.01;55.53;102175.40;2101593;83;51234;-74
2023/09/04 11:34:21;;;;;;;4.22;2.10;;;;;;;22.99;55.49;102178.30;2120320;84;50658;-75
2023/09/04 11:37:23;;;;;;;4.00;2.55;;;;;;;22.98;55.50;102173.89;2121716;82;51597;-75
2023/09/04 11:40:33;;;;;;;3.72;2.22;;;;;;;22.99;55.54;102178.77;2082043;84;51096;-76
2023/09/04 11:43:36;;;;;;;3.33;2.30;;;;;;;23.00;55.48;102173.73;2124665;83;51524;-74
2023/09/04 11:46:38;;;;;;;3.05;2.17;;;;;;;22.98;55.51;102183.34;2102963;84;50736;-75
2023/09/04 11:49:40;;;;;;;4.58;2.40;;;;;;;22.99;55.51;102178.77;2121223;84;51554;-75
2023/09/04 11:52:42;;;;;;;3.17;2.20;;;;;;;22.99;55.49;102175.59;2102679;84;51443;-74
2023/09/04 11:55:45;;;;;;;4.60;2.20;;;;;;;23.01;55.45;102174.05;2101966;84;52300;-74
2023/09/04 11:58:47;;;;;;;5.33;2.47;;;;;;;22.99;55.49;102173.38;2103228;83;52238;-74
2023/09/04 12:01:50;;;;;;;6.58;2.37;;;;;;;23.00;55.44;102167.81;2103065;84;51518;-75
2023/09/04 12:04:56;;;;;;;4.53;2.25;;;;;;;23.00;55.42;102165.63;2080593;83;52944;-74
2023/09/04 12:07:56;;;;;;;5.30;2.47;;;;;;;22.99;55.45;102164.80;2082587;83;22531;-74
2023/09/04 12:10:58;;;;;;;4.83;2.45;;;;;;;23.01;55.43;102161.90;2122910;83;50314;-75
2023/09/04 12:14:09;;;;;;;4.45;2.22;;;;;;;22.99;55.43;102163.92;2122490;83;50201;-75
2023/09/04 12:17:11;;;;;;;3.27;2.10;;;;;;;23.00;55.42;102166.98;2122280;83;50324;-75
2023/09/04 12:20:16;;;;;;;3.00;2.08;;;;;;;23.00;55.40;102158.37;2072829;83;52624;-74
2023/09/04 12:23:18;;;;;;;3.65;2.33;;;;;;;22.99;55.36;102149.08;2092172;82;52442;-75
2023/09/04 12:26:20;;;;;;;3.17;2.47;;;;;;;22.99;55.36;102157.17;2123077;83;52151;-75
2023/09/04 12:29:22;;;;;;;4.45;2.25;;;;;;;22.97;55.41;102145.23;2092437;83;51451;-74
2023/09/04 12:32:25;;;;;;;3.80;2.35;;;;;;;23.01;55.33;102144.35;2122858;83;50244;-74
2023/09/04 12:35:27;;;;;;;4.50;2.20;;;;;;;22.99;55.32;102137.80;2122497;83;51427;-74
2023/09/04 12:38:29;;;;;;;2.50;2.22;;;;;;;22.99;55.33;102140.50;2103390;83;51740;-74
2023/09/04 12:41:31;;;;;;;3.30;2.10;;;;;;;23.00;55.32;102131.88;2103279;84;51524;-74
2023/09/04 12:44:34;;;;;;;4.45;2.25;;;;;;;23.00;55.33;102133.23;2101284;83;52358;-74
2023/09/04 12:47:36;;;;;;;3.72;2.20;;;;;;;22.98;55.36;102132.05;2103160;84;49674;-74
2023/09/04 12:50:38;;;;;;;3.72;2.10;;;;;;;23.00;55.32;102125.97;2121447;84;50349;-75
2023/09/04 12:53:40;;;;;;;3.77;1.98;;;;;;;23.00;55.30;102129.19;2121613;83;50743;-76
2023/09/04 12:56:42;;;;;;;5.12;2.22;;;;;;;23.00;55.31;102127.84;2103037;84;51606;-75
2023/09/04 12:59:45;;;;;;;4.00;2.22;;;;;;;23.00;55.31;102133.23;2082012;84;51512;-77
2023/09/04 13:02:47;;;;;;;2.15;1.92;;;;;;;23.01;55.26;102123.59;2102569;84;52131;-75
2023/09/04 13:05:49;;;;;;;3.50;2.05;;;;;;;23.01;55.27;102121.41;2103304;84;50098;-76
2023/09/04 13:08:52;;;;;;;3.27;2.15;;;;;;;23.07;55.17;102114.45;2121989;83;50282;-76
2023/09/04 13:11:56;;;;;;;2.60;2.00;;;;;;;23.03;55.22;102113.46;2103430;83;51527;-76
2023/09/04 13:14:58;;;;;;;3.70;2.17;;;;;;;23.00;55.34;102107.08;2120825;83;50732;-77
2023/09/04 13:18:00;;;;;;;2.85;2.08;;;;;;;23.00;55.42;102110.28;2076637;84;51206;-76
2023/09/04 13:21:03;;;;;;;2.83;2.20;;;;;;;22.96;55.54;102113.80;2103260;83;50604;-77
2023/09/04 13:24:06;;;;;;;3.27;1.92;;;;;;;22.96;55.58;102108.91;2102831;84;50306;-76
2023/09/04 13:27:09;;;;;;;3.92;2.30;;;;;;;22.96;55.62;102107.56;2103271;83;51540;-77
2023/09/04 13:30:11;;;;;;;2.85;1.85;;;;;;;22.97;55.63;102099.84;2102990;83;50294;-76
2023/09/04 13:33:14;;;;;;;3.50;2.40;;;;;;;22.98;55.63;102098.82;2079524;84;52352;-75
2023/09/04 13:36:16;;;;;;;2.58;2.05;;;;;;;22.97;55.66;102088.53;2103328;82;51431;-76
2023/09/04 13:39:18;;;;;;;3.37;2.33;;;;;;;22.98;55.66;102082.11;2093172;83;50341;-75
2023/09/04 13:42:20;;;;;;;2.20;2.00;;;;;;;22.99;55.64;102078.41;2082131;83;50092;-77
2023/09/04 13:45:22;;;;;;;3.35;2.15;;;;;;;23.01;55.68;102071.46;2094237;83;50359;-75
2023/09/04 13:48:26;;;;;;;4.40;1.92;;;;;;;23.02;55.65;102074.00;2096242;83;51446;-76
2023/09/04 13:51:29;;;;;;;2.98;2.27;;;;;;;23.05;55.62;102066.05;2122787;83;50682;-77
2023/09/04 13:54:31;;;;;;;3.67;2.12;;;;;;;23.05;55.69;102057.95;2122721;83;50526;-75
2023/09/04 13:57:33;;;;;;;5.37;2.10;;;;;;;23.04;55.70;102061.65;2104621;83;51726;-74
2023/09/04 14:00:36;;;;;;;3.75;2.10;;;;;;;23.06;55.76;102064.19;2082779;83;50285;-74
2023/09/04 14:03:38;;;;;;;3.27;1.98;;;;;;;23.04;55.78;102063.00;2093095;83;50340;-74
2023/09/04 14:06:40;;;;;;;6.62;2.10;;;;;;;23.07;55.77;102063.16;2092758;83;51442;-75
2023/09/04 14:09:42;;;;;;;3.30;2.20;;;;;;;23.06;55.82;102059.62;2080931;84;51598;-75
2023/09/04 14:12:44;;;;;;;5.47;2.35;;;;;;;23.07;55.82;102051.00;2102884;83;51399;-74
2023/09/04 14:15:47;;;;;;;4.45;2.17;;;;;;;23.09;55.79;102058.42;2121419;83;50647;-74
2023/09/04 14:18:50;;;;;;;3.42;2.37;;;;;;;23.09;55.84;102052.51;2120771;84;50333;-74
2023/09/04 14:21:57;;;;;;;3.65;2.47;;;;;;;23.09;55.87;102045.76;2101541;84;51114;-74
2023/09/04 14:24:56;;;;;;;2.10;1.67;;;;;;;23.10;55.89;102037.17;2102690;83;22546;-75
2023/09/04 14:27:58;;;;;;;3.72;2.35;;;;;;;23.11;55.90;102044.24;2103203;84;50239;-75
2023/09/04 14:31:01;;;;;;;2.95;1.90;;;;;;;23.11;55.97;102046.42;2103376;83;51706;-75
2023/09/04 14:34:03;;;;;;;3.77;2.05;;;;;;;23.11;55.97;102038.33;2121072;83;50280;-74
2023/09/04 14:37:06;;;;;;;3.00;2.15;;;;;;;23.13;55.99;102037.64;2103393;83;50791;-74
2023/09/04 14:40:12;;;;;;;3.62;2.20;;;;;;;23.15;56.03;102032.91;2120907;83;51695;-75